Time;durP1;ratioP1;P1;durP2;ratioP2;P2;SDS_P1;SDS_P2;PMS_P1;PMS_P2;Temp;Humidity;BMP_temperature;BMP_pressure;BME280_temperature;BME280_humidity;BME280_pressure;Samples;Min_cycle;Max_cycle;Signal;HPM_P1;HPM_P2
2022/01/11 00:02:41;;;;;;;27.03;21.57;;;5.70;99.90;;;;;;10386549;28;20208;-82
2022/01/11 00:07:45;;;;;;;24.73;22.10;;;5.80;99.90;;;;;;10418754;28;20263;-83
2022/01/11 00:12:47;;;;;;;26.10;21.87;;;5.80;99.90;;;;;;10394986;28;20241;-82
2022/01/11 00:17:49;;;;;;;26.47;21.40;;;5.80;99.90;;;;;;10392762;28;20301;-82
2022/01/11 00:28:16;;;;;;;27.03;22.63;;;5.80;99.90;;;;;;10387564;28;20202;-83
2022/01/11 00:33:34;;;;;;;26.50;22.17;;;5.80;99.90;;;;;;10390271;28;20272;-82
2022/01/11 00:38:39;;;;;;;25.47;21.27;;;5.80;99.90;;;;;;10410175;28;20650;-82
2022/01/11 00:43:43;;;;;;;26.23;21.43;;;5.80;99.90;;;;;;10395745;28;20217;-82
2022/01/11 00:48:45;;;;;;;30.60;21.83;;;5.80;99.90;;;;;;10391117;28;20615;-83
2022/01/11 00:53:48;;;;;;;25.07;22.37;;;5.80;99.90;;;;;;10379916;28;20324;-82
2022/01/11 00:58:50;;;;;;;28.73;23.73;;;5.80;99.90;;;;;;10388515;28;20194;-82
2022/01/11 01:03:52;;;;;;;25.00;22.40;;;5.80;99.90;;;;;;10410506;28;20241;-82
2022/01/11 01:08:58;;;;;;;25.80;22.90;;;5.80;99.90;;;;;;10409438;28;20194;-82
2022/01/11 01:14:01;;;;;;;27.10;24.17;;;5.80;99.90;;;;;;10383825;28;20268;-82
2022/01/11 01:19:04;;;;;;;31.77;24.37;;;5.80;99.90;;;;;;10408032;28;20205;-82
2022/01/11 01:24:11;;;;;;;28.23;23.70;;;5.70;99.90;;;;;;10400649;28;20218;-83
2022/01/11 01:29:14;;;;;;;31.83;23.80;;;5.70;99.90;;;;;;10395615;28;20240;-82
2022/01/11 01:34:16;;;;;;;27.63;24.60;;;5.70;99.90;;;;;;10408126;28;20287;-82
2022/01/11 01:39:19;;;;;;;30.57;26.07;;;5.80;99.90;;;;;;10389767;28;20198;-82
2022/01/11 01:44:25;;;;;;;28.50;25.40;;;5.80;99.90;;;;;;10408225;28;20221;-83
2022/01/11 01:49:28;;;;;;;31.80;26.40;;;5.80;99.90;;;;;;10383245;28;20221;-82
2022/01/11 01:54:32;;;;;;;32.80;25.20;;;5.80;99.90;;;;;;10396406;28;21683;-82
2022/01/11 01:59:34;;;;;;;32.30;26.00;;;5.80;99.90;;;;;;10403222;28;20212;-82
2022/01/11 02:04:36;;;;;;;31.70;26.47;;;5.80;99.90;;;;;;10400433;28;20584;-82
2022/01/11 02:09:41;;;;;;;30.53;26.70;;;5.90;99.90;;;;;;10402656;28;20217;-83
2022/01/11 02:14:43;;;;;;;34.20;25.40;;;5.90;99.90;;;;;;10391616;28;20312;-82
2022/01/11 02:19:47;;;;;;;38.67;28.37;;;5.90;99.90;;;;;;10406659;28;20190;-82
2022/01/11 02:24:51;;;;;;;32.17;27.90;;;5.90;99.90;;;;;;10402958;28;20260;-82
2022/01/11 02:29:54;;;;;;;30.03;26.73;;;6.00;99.90;;;;;;10414028;28;20202;-82
2022/01/11 02:34:56;;;;;;;28.80;24.30;;;6.00;99.90;;;;;;10393104;28;20295;-82
2022/01/11 02:40:02;;;;;;;26.00;22.90;;;6.00;99.90;;;;;;10410495;28;20255;-82
2022/01/11 02:45:17;;;;;;;27.37;24.40;;;5.90;99.90;;;;;;10444518;28;20241;-82
2022/01/11 02:50:20;;;;;;;28.33;24.73;;;5.90;99.90;;;;;;10413053;28;20217;-82
2022/01/11 02:55:25;;;;;;;31.67;24.40;;;5.80;99.90;;;;;;10403008;28;20228;-83
2022/01/11 03:00:28;;;;;;;28.40;24.67;;;5.80;99.90;;;;;;10404917;28;20268;-82
2022/01/11 03:05:31;;;;;;;28.13;23.50;;;5.80;99.90;;;;;;10433460;28;20213;-83
2022/01/11 03:10:37;;;;;;;31.23;24.50;;;5.80;99.90;;;;;;10427587;28;20236;-82
2022/01/11 03:15:41;;;;;;;31.33;25.50;;;5.70;99.90;;;;;;10411158;28;20678;-83
2022/01/11 03:20:48;;;;;;;31.23;25.30;;;5.80;99.90;;;;;;10429304;28;20261;-83
2022/01/11 03:25:56;;;;;;;29.50;24.93;;;5.70;99.90;;;;;;10423439;28;20698;-81
2022/01/11 03:31:00;;;;;;;28.93;25.00;;;5.70;99.90;;;;;;10403966;28;20682;-81
2022/01/11 03:36:07;;;;;;;31.20;26.10;;;5.70;99.90;;;;;;10404580;28;20230;-83
2022/01/11 03:41:12;;;;;;;33.43;25.53;;;5.70;99.90;;;;;;10404220;28;20198;-83
2022/01/11 03:46:16;;;;;;;37.90;26.97;;;5.70;99.90;;;;;;10403231;28;20221;-83
2022/01/11 03:51:19;;;;;;;37.43;29.23;;;5.70;99.90;;;;;;10425678;28;20206;-81
2022/01/11 03:56:28;;;;;;;34.13;27.60;;;5.60;99.90;;;;;;10418448;28;20264;-81
2022/01/11 04:01:40;;;;;;;40.73;29.93;;;5.60;99.90;;;;;;10416229;28;20175;-81
2022/01/11 04:06:43;;;;;;;34.60;27.50;;;5.60;99.90;;;;;;10400018;28;20214;-81
2022/01/11 04:11:47;;;;;;;39.00;28.70;;;5.50;99.90;;;;;;10400253;28;20713;-81
2022/01/11 04:16:51;;;;;;;37.43;28.90;;;5.60;99.90;;;;;;10371859;28;20226;-81
2022/01/11 04:21:54;;;;;;;35.53;28.23;;;5.60;99.90;;;;;;10358477;28;20201;-81
2022/01/11 04:26:58;;;;;;;38.83;28.90;;;5.60;99.90;;;;;;10357992;28;20225;-81
2022/01/11 04:32:02;;;;;;;38.43;27.90;;;5.60;99.90;;;;;;10357969;28;20218;-81
2022/01/11 04:37:05;;;;;;;36.30;28.93;;;5.50;99.90;;;;;;10357818;28;20664;-81
2022/01/11 04:42:11;;;;;;;31.07;26.27;;;5.50;99.90;;;;;;10357687;28;20205;-81
2022/01/11 04:47:13;;;;;;;38.97;29.27;;;5.50;99.90;;;;;;10358000;28;20298;-81
2022/01/11 04:52:15;;;;;;;36.90;28.20;;;5.40;99.90;;;;;;10374124;28;20217;-82
2022/01/11 04:57:19;;;;;;;40.40;30.20;;;5.50;99.90;;;;;;10390239;28;20635;-82
2022/01/11 05:02:22;;;;;;;36.87;27.70;;;5.50;99.90;;;;;;10389955;28;20647;-81
2022/01/11 05:07:25;;;;;;;37.80;29.73;;;5.50;99.90;;;;;;10414145;28;20227;-81
2022/01/11 05:12:28;;;;;;;31.10;25.90;;;5.50;99.90;;;;;;10424854;28;20224;-82
2022/01/11 05:17:31;;;;;;;30.30;26.40;;;5.60;99.90;;;;;;10411893;28;20224;-82
2022/01/11 05:22:33;;;;;;;33.30;25.80;;;5.60;99.90;;;;;;10397412;28;20217;-82
2022/01/11 05:27:36;;;;;;;32.97;25.87;;;5.60;99.90;;;;;;10406278;28;20213;-84
2022/01/11 05:32:39;;;;;;;31.07;26.33;;;5.70;99.90;;;;;;10440013;28;20687;-82
2022/01/11 05:37:41;;;;;;;29.63;24.97;;;5.80;99.90;;;;;;10431791;28;20222;-81
2022/01/11 05:42:48;;;;;;;28.30;24.83;;;5.80;99.90;;;;;;10402905;28;20828;-84
2022/01/11 05:47:52;;;;;;;27.57;24.33;;;5.80;99.90;;;;;;10406053;28;20216;-83
2022/01/11 05:52:55;;;;;;;33.23;26.83;;;5.90;99.90;;;;;;10437968;28;20229;-84
2022/01/11 05:57:59;;;;;;;35.23;25.07;;;5.90;99.90;;;;;;10399004;28;20206;-83
2022/01/11 06:03:03;;;;;;;36.43;26.77;;;5.90;99.90;;;;;;10398396;28;20623;-84
2022/01/11 06:08:10;;;;;;;31.17;27.57;;;6.00;99.90;;;;;;10397826;28;20237;-84
2022/01/11 06:13:16;;;;;;;30.50;27.10;;;6.00;99.90;;;;;;10413447;28;20714;-84
2022/01/11 06:18:20;;;;;;;31.50;27.17;;;6.00;99.90;;;;;;10396530;28;20198;-85
2022/01/11 06:23:51;;;;;;;29.57;25.37;;;6.00;99.90;;;;;;10413904;28;20240;-83
2022/01/11 06:28:56;;;;;;;30.30;26.50;;;6.00;99.90;;;;;;10409818;28;20247;-85
2022/01/11 06:33:59;;;;;;;32.20;26.63;;;6.00;99.90;;;;;;10448570;28;20241;-84
2022/01/11 06:39:01;;;;;;;28.47;25.47;;;6.10;99.90;;;;;;10424683;28;20228;-84
2022/01/11 06:44:10;;;;;;;28.80;25.60;;;6.00;99.90;;;;;;10443060;28;20214;-84
2022/01/11 06:49:13;;;;;;;33.73;27.03;;;6.00;99.90;;;;;;10430562;28;20204;-83
2022/01/11 06:54:15;;;;;;;31.70;26.77;;;5.90;99.90;;;;;;10449500;28;20237;-84
2022/01/11 06:59:21;;;;;;;33.87;28.37;;;5.90;99.90;;;;;;10437231;28;20564;-84
2022/01/11 07:04:23;;;;;;;33.73;28.83;;;5.80;99.90;;;;;;10471232;28;20218;-83
2022/01/11 07:09:30;;;;;;;36.60;28.90;;;5.80;99.90;;;;;;10441944;28;20202;-83
2022/01/11 07:14:34;;;;;;;35.90;28.80;;;5.90;99.90;;;;;;10428577;28;20582;-83
2022/01/11 07:19:37;;;;;;;32.37;28.63;;;5.90;99.90;;;;;;10438642;28;20196;-83
2022/01/11 07:24:45;;;;;;;35.23;28.53;;;5.90;99.90;;;;;;10441941;28;20665;-83
2022/01/11 07:29:49;;;;;;;35.63;28.40;;;5.90;99.90;;;;;;10422239;28;20194;-82
2022/01/11 07:34:51;;;;;;;34.57;28.43;;;5.90;99.90;;;;;;10441176;28;20698;-83
2022/01/11 07:39:54;;;;;;;29.70;26.50;;;5.90;99.90;;;;;;10421186;28;20200;-83
2022/01/11 07:44:57;;;;;;;37.40;28.80;;;5.90;99.90;;;;;;10468146;28;20221;-83
2022/01/11 07:50:00;;;;;;;34.70;29.20;;;6.00;99.90;;;;;;10442712;28;20653;-83
2022/01/11 07:55:05;;;;;;;31.20;27.90;;;6.00;99.90;;;;;;10419550;28;20252;-83
2022/01/11 08:00:10;;;;;;;29.93;26.73;;;6.00;99.90;;;;;;10442080;28;20565;-83
2022/01/11 08:05:18;;;;;;;32.20;27.00;;;6.10;99.90;;;;;;10438190;28;20616;-81
2022/01/11 08:10:21;;;;;;;32.10;26.87;;;6.10;99.90;;;;;;10441643;28;20201;-83
2022/01/11 08:15:26;;;;;;;30.37;26.63;;;6.20;99.90;;;;;;10418512;28;20221;-83
2022/01/11 08:20:29;;;;;;;32.40;25.83;;;6.20;99.90;;;;;;10456543;28;20560;-83
2022/01/11 08:25:33;;;;;;;35.87;26.60;;;6.20;99.90;;;;;;10418508;28;20224;-83
2022/01/11 08:30:37;;;;;;;34.00;27.60;;;6.20;99.90;;;;;;10441846;28;20289;-84
2022/01/11 08:35:43;;;;;;;32.57;26.00;;;6.20;99.90;;;;;;10418989;28;20229;-82
2022/01/11 08:40:47;;;;;;;29.30;25.33;;;6.30;99.90;;;;;;10440935;28;20197;-83
2022/01/11 08:45:51;;;;;;;32.70;25.90;;;6.30;99.90;;;;;;10433975;28;20235;-83
2022/01/11 08:50:54;;;;;;;31.13;27.57;;;6.30;99.90;;;;;;10456846;28;20225;-84
2022/01/11 08:56:02;;;;;;;28.73;25.60;;;6.30;99.90;;;;;;10415565;28;20213;-83
2022/01/11 09:01:09;;;;;;;28.57;25.47;;;6.40;99.90;;;;;;10439131;28;20197;-83
2022/01/11 09:06:14;;;;;;;29.10;24.57;;;6.50;99.90;;;;;;10415717;28;20575;-83
2022/01/11 09:11:20;;;;;;;30.77;24.40;;;6.60;99.90;;;;;;10438932;28;20218;-83
2022/01/11 09:16:25;;;;;;;26.27;23.27;;;6.60;99.90;;;;;;10414629;28;20289;-83
2022/01/11 09:21:28;;;;;;;27.13;24.00;;;6.70;99.90;;;;;;10437815;28;20213;-83
2022/01/11 09:26:31;;;;;;;27.17;24.20;;;6.70;99.90;;;;;;10430942;28;20208;-83
2022/01/11 09:31:39;;;;;;;27.53;22.93;;;6.80;99.90;;;;;;10438020;28;20221;-83
2022/01/11 09:36:44;;;;;;;25.93;23.23;;;6.80;99.90;;;;;;10414926;28;20771;-82
2022/01/11 09:41:51;;;;;;;25.90;23.10;;;6.80;99.90;;;;;;10437677;28;20548;-83
2022/01/11 09:46:58;;;;;;;27.40;23.67;;;6.80;99.90;;;;;;10434832;28;20227;-84
2022/01/11 09:52:07;;;;;;;28.27;22.47;;;6.80;99.90;;;;;;10436744;28;20220;-83
2022/01/11 09:57:10;;;;;;;27.00;22.43;;;6.90;99.90;;;;;;10431569;28;20247;-83
2022/01/11 10:02:16;;;;;;;28.80;24.07;;;6.80;99.90;;;;;;10436042;28;20573;-83
2022/01/11 10:07:32;;;;;;;28.40;21.97;;;6.90;99.90;;;;;;10416179;28;20599;-82
2022/01/11 10:12:43;;;;;;;24.43;21.93;;;7.00;99.90;;;;;;10448394;28;20657;-82
2022/01/11 10:17:48;;;;;;;24.83;21.57;;;7.00;99.90;;;;;;10421421;28;20231;-83
2022/01/11 10:22:57;;;;;;;24.70;21.37;;;7.10;99.90;;;;;;10439242;28;20263;-82
2022/01/11 10:28:07;;;;;;;25.30;22.53;;;7.10;99.90;;;;;;10424627;28;20217;-83
2022/01/11 10:33:17;;;;;;;23.40;20.93;;;7.20;99.90;;;;;;10453786;28;20217;-81
2022/01/11 10:38:30;;;;;;;23.77;20.73;;;7.20;99.90;;;;;;10442075;28;20211;-83
2022/01/11 10:43:44;;;;;;;28.50;23.20;;;7.30;99.90;;;;;;10411553;28;20584;-82
2022/01/11 10:48:51;;;;;;;26.07;21.87;;;7.40;99.90;;;;;;10427697;28;20213;-83
2022/01/11 10:53:53;;;;;;;23.93;21.40;;;7.50;99.90;;;;;;10457918;28;20209;-84
2022/01/11 10:59:06;;;;;;;24.73;21.77;;;7.50;99.90;;;;;;10435288;28;20194;-83
2022/01/11 11:04:30;;;;;;;25.53;21.00;;;7.60;99.90;;;;;;10444951;28;20221;-83
2022/01/11 11:09:44;;;;;;;24.20;20.37;;;7.70;99.90;;;;;;10433442;28;20228;-82
2022/01/11 11:14:51;;;;;;;21.17;18.97;;;7.80;99.90;;;;;;10423001;28;20270;-82
2022/01/11 11:20:00;;;;;;;19.43;17.40;;;7.80;99.90;;;;;;10451768;28;20224;-83
2022/01/11 11:25:05;;;;;;;22.43;19.20;;;7.80;99.90;;;;;;10435700;28;20304;-83
2022/01/11 11:30:08;;;;;;;18.37;16.27;;;7.80;99.90;;;;;;10475251;28;20220;-83
2022/01/11 11:35:13;;;;;;;18.63;16.70;;;7.90;99.90;;;;;;10437143;28;20240;-82
2022/01/11 11:40:19;;;;;;;19.63;16.90;;;8.00;99.90;;;;;;10448116;28;20596;-82
2022/01/11 11:45:25;;;;;;;19.90;16.90;;;8.00;99.90;;;;;;10447757;28;20214;-83
2022/01/11 11:50:28;;;;;;;21.13;18.70;;;7.90;99.90;;;;;;10435251;28;20269;-82
2022/01/11 11:55:33;;;;;;;22.27;19.27;;;7.90;99.90;;;;;;10449030;28;20225;-80
2022/01/11 12:00:42;;;;;;;20.27;17.40;;;7.80;99.90;;;;;;10434701;28;20245;-81
2022/01/11 12:05:47;;;;;;;15.20;13.63;;;7.70;99.90;;;;;;10431579;28;20209;-81
2022/01/11 12:10:52;;;;;;;12.27;10.83;;;7.70;99.90;;;;;;10435331;28;20204;-80
2022/01/11 12:15:54;;;;;;;10.87;9.77;;;7.60;99.90;;;;;;10430541;28;20298;-81
2022/01/11 12:20:59;;;;;;;11.10;10.00;;;7.70;99.90;;;;;;10432133;28;20201;-82
2022/01/11 12:26:13;;;;;;;9.60;8.33;;;7.80;99.90;;;;;;10429715;28;20210;-82
2022/01/11 12:31:26;;;;;;;11.67;8.00;;;7.90;99.90;;;;;;10449807;28;20197;-80
2022/01/11 12:36:56;;;;;;;6.37;5.87;;;8.00;99.90;;;;;;10426274;28;20312;-82
2022/01/11 12:41:59;;;;;;;9.67;6.63;;;8.00;99.90;;;;;;10434046;28;20658;-83
2022/01/11 12:47:05;;;;;;;6.07;5.47;;;8.10;99.90;;;;;;10447031;28;20229;-83
2022/01/11 12:52:14;;;;;;;6.00;5.50;;;8.10;99.90;;;;;;10463813;28;20296;-84
2022/01/11 12:57:19;;;;;;;7.43;5.10;;;8.10;99.90;;;;;;10436113;28;20232;-83
2022/01/11 13:02:34;;;;;;;4.47;4.07;;;8.00;99.20;;;;;;10625548;27;20550;-84
2022/01/11 13:07:37;;;;;;;3.97;3.50;;;7.80;99.30;;;;;;10624904;27;20214;-81
2022/01/11 13:12:42;;;;;;;4.73;4.23;;;7.60;99.70;;;;;;10606580;28;20190;-83
2022/01/11 13:17:57;;;;;;;5.23;4.80;;;7.60;99.90;;;;;;10606784;28;20222;-84
2022/01/11 13:23:11;;;;;;;5.33;4.93;;;7.60;99.90;;;;;;10624491;28;20213;-82
2022/01/11 13:28:14;;;;;;;5.53;5.00;;;7.60;99.90;;;;;;10623237;28;20218;-83
2022/01/11 13:33:28;;;;;;;6.80;5.90;;;7.60;99.90;;;;;;10622274;28;20204;-83
2022/01/11 13:38:33;;;;;;;6.50;5.13;;;7.60;99.90;;;;;;10623398;27;20632;-83
2022/01/11 13:43:36;;;;;;;6.60;6.00;;;7.60;99.90;;;;;;10620064;28;20203;-84
2022/01/11 13:49:00;;;;;;;11.10;6.33;;;7.50;99.90;;;;;;10592104;28;20196;-82
2022/01/11 13:54:04;;;;;;;12.37;9.30;;;7.50;99.90;;;;;;10595551;28;20242;-82
2022/01/11 13:59:11;;;;;;;7.33;6.63;;;7.60;99.90;;;;;;10618849;28;20729;-83
2022/01/11 14:04:18;;;;;;;6.27;5.63;;;7.60;99.90;;;;;;10599526;28;20678;-83
2022/01/11 14:09:33;;;;;;;5.63;5.10;;;7.60;99.90;;;;;;10571374;28;20653;-81
2022/01/11 14:14:40;;;;;;;5.37;4.87;;;7.60;99.90;;;;;;10587554;28;20218;-83
2022/01/11 14:19:52;;;;;;;6.27;5.70;;;7.60;99.90;;;;;;10594007;28;20227;-84
2022/01/11 14:24:59;;;;;;;6.13;5.53;;;7.50;99.90;;;;;;10585327;22;20311;-84
2022/01/11 14:30:05;;;;;;;7.23;6.50;;;7.50;99.90;;;;;;10493697;28;20196;-82
2022/01/11 14:35:28;;;;;;;9.90;8.87;;;7.50;98.60;;;;;;10529300;28;20215;-82
2022/01/11 14:40:30;;;;;;;9.10;8.20;;;7.40;98.90;;;;;;10494665;28;20251;-83
2022/01/11 14:45:46;;;;;;;8.33;7.60;;;7.20;99.90;;;;;;10544271;28;20338;-85
2022/01/11 14:50:52;;;;;;;6.53;5.80;;;7.30;99.90;;;;;;10512463;28;20713;-82
2022/01/11 14:55:58;;;;;;;6.30;5.70;;;7.30;99.90;;;;;;10521318;28;20298;-82
2022/01/11 15:01:22;;;;;;;6.53;5.93;;;7.30;99.90;;;;;;10490853;28;20212;-84
2022/01/11 15:06:34;;;;;;;7.23;6.53;;;7.30;99.90;;;;;;10515706;28;20572;-85
2022/01/11 15:11:48;;;;;;;7.43;6.50;;;7.30;99.90;;;;;;10547847;28;20185;-85
2022/01/11 15:16:53;;;;;;;10.60;7.57;;;7.30;99.90;;;;;;10506985;28;20225;-85
2022/01/11 15:21:56;;;;;;;8.13;7.33;;;7.30;99.90;;;;;;10488941;28;20215;-83
2022/01/11 15:27:01;;;;;;;6.83;6.23;;;7.30;99.90;;;;;;10501059;28;20308;-83
2022/01/11 15:32:07;;;;;;;6.30;5.70;;;7.30;99.90;;;;;;10486097;28;20187;-84
2022/01/11 15:37:11;;;;;;;6.80;6.10;;;7.20;99.90;;;;;;10535329;28;20684;-84
2022/01/11 15:42:13;;;;;;;6.00;5.50;;;7.20;99.90;;;;;;10485951;28;20207;-84
2022/01/11 15:47:21;;;;;;;5.73;5.23;;;7.20;99.90;;;;;;10518695;28;20276;-82
2022/01/11 15:52:27;;;;;;;6.50;5.90;;;7.20;99.90;;;;;;10471960;28;20210;-83
2022/01/11 15:57:29;;;;;;;6.90;6.30;;;7.10;99.90;;;;;;10517355;28;20285;-84
2022/01/11 16:02:35;;;;;;;6.47;5.97;;;7.00;99.90;;;;;;10485190;28;20212;-82
2022/01/11 16:07:38;;;;;;;6.50;5.90;;;7.00;99.90;;;;;;10516622;28;20581;-83
2022/01/11 16:12:40;;;;;;;9.93;7.77;;;7.00;99.90;;;;;;10490303;28;20184;-80
2022/01/11 16:17:45;;;;;;;8.53;7.80;;;7.00;99.90;;;;;;10509674;28;20247;-81
2022/01/11 16:22:49;;;;;;;7.90;7.23;;;7.10;99.90;;;;;;10477586;28;20243;-80
2022/01/11 16:27:51;;;;;;;8.93;8.03;;;7.10;99.90;;;;;;10504457;28;20235;-80
2022/01/11 16:33:01;;;;;;;8.37;7.67;;;7.10;99.90;;;;;;10514865;28;20208;-82
2022/01/11 16:38:08;;;;;;;7.90;7.20;;;7.10;99.90;;;;;;10511375;28;20648;-82
2022/01/11 16:43:12;;;;;;;10.17;7.63;;;7.10;99.90;;;;;;10494104;28;20672;-82
2022/01/11 16:48:17;;;;;;;7.17;6.47;;;7.10;99.90;;;;;;10509006;28;20226;-81
2022/01/11 16:53:21;;;;;;;7.50;6.70;;;7.10;99.90;;;;;;10532213;28;20204;-82
2022/01/11 16:58:25;;;;;;;8.60;7.70;;;7.10;99.90;;;;;;10514119;28;20279;-80
2022/01/11 17:03:27;;;;;;;7.70;6.80;;;7.10;99.90;;;;;;10514387;28;20288;-80
2022/01/11 17:08:30;;;;;;;8.60;7.70;;;7.10;99.90;;;;;;10536111;28;20218;-81
2022/01/11 17:13:33;;;;;;;8.50;7.33;;;7.10;99.90;;;;;;10535608;28;20586;-80
2022/01/11 17:18:38;;;;;;;7.67;6.97;;;7.10;99.90;;;;;;10538520;28;20253;-81
2022/01/11 17:23:42;;;;;;;7.47;6.73;;;7.00;99.90;;;;;;10507249;28;20290;-81
2022/01/11 17:28:45;;;;;;;7.40;6.70;;;7.00;99.90;;;;;;10516748;28;20204;-81
2022/01/11 17:33:49;;;;;;;7.03;6.33;;;7.00;99.90;;;;;;10521510;28;20251;-81
2022/01/11 17:38:53;;;;;;;7.47;6.77;;;7.00;99.90;;;;;;10524901;28;20718;-81
2022/01/11 17:43:55;;;;;;;7.63;6.93;;;7.00;99.90;;;;;;10524230;28;20222;-82
2022/01/11 17:48:58;;;;;;;7.80;7.10;;;7.00;99.90;;;;;;10516722;28;20195;-82
2022/01/11 17:54:03;;;;;;;7.60;6.90;;;7.00;99.90;;;;;;10540062;28;20216;-84
2022/01/11 17:59:05;;;;;;;7.97;6.83;;;7.00;99.90;;;;;;10513711;28;20212;-79
2022/01/11 18:04:08;;;;;;;7.90;7.20;;;6.90;99.90;;;;;;10493336;28;20708;-79
2022/01/11 18:09:11;;;;;;;9.30;8.40;;;6.90;99.90;;;;;;10523801;28;20200;-80
2022/01/11 18:14:32;;;;;;;8.43;7.63;;;6.90;99.90;;;;;;10506713;28;20307;-79
2022/01/11 18:19:38;;;;;;;8.63;7.83;;;6.90;99.90;;;;;;10506225;28;20233;-77
2022/01/11 18:24:41;;;;;;;9.27;8.33;;;6.90;99.90;;;;;;10507037;28;20212;-78
2022/01/11 18:29:44;;;;;;;8.00;7.13;;;6.90;99.90;;;;;;10483831;28;20231;-78
2022/01/11 18:34:46;;;;;;;9.20;8.37;;;6.90;99.90;;;;;;10500713;28;20208;-79
2022/01/11 18:39:49;;;;;;;8.80;7.87;;;6.90;99.90;;;;;;10540756;28;20282;-79
2022/01/11 18:44:52;;;;;;;8.67;7.53;;;6.90;99.90;;;;;;10542907;28;20239;-79
2022/01/11 18:49:54;;;;;;;7.97;7.20;;;6.90;99.90;;;;;;10538971;28;20192;-78
2022/01/11 18:54:57;;;;;;;8.27;7.47;;;6.80;99.90;;;;;;10543082;28;20228;-80
2022/01/11 19:00:00;;;;;;;7.67;6.87;;;6.80;99.90;;;;;;10518006;28;20260;-78
2022/01/11 19:05:04;;;;;;;7.80;6.50;;;6.80;99.90;;;;;;10522671;28;20219;-79
2022/01/11 19:10:09;;;;;;;7.10;6.50;;;6.70;99.90;;;;;;10526147;28;20246;-78
2022/01/11 19:15:11;;;;;;;6.47;5.90;;;6.70;99.50;;;;;;10482312;28;20208;-80
2022/01/11 19:20:13;;;;;;;7.00;6.50;;;6.50;99.30;;;;;;10499207;28;20196;-78
2022/01/11 19:25:17;;;;;;;5.17;4.70;;;6.50;98.80;;;;;;10480922;28;20228;-80
2022/01/11 19:30:19;;;;;;;7.83;7.23;;;6.40;97.10;;;;;;10523144;28;20192;-78
2022/01/11 19:35:21;;;;;;;7.03;6.43;;;6.20;99.90;;;;;;10522654;28;20218;-79
2022/01/11 19:40:25;;;;;;;7.07;6.47;;;6.20;99.90;;;;;;10482703;28;20299;-78
2022/01/11 19:45:27;;;;;;;5.57;5.17;;;6.10;99.90;;;;;;10520644;28;20731;-80
2022/01/11 19:50:31;;;;;;;5.83;5.33;;;6.10;99.90;;;;;;10521559;28;20184;-78
2022/01/11 19:55:35;;;;;;;6.20;5.67;;;6.00;98.80;;;;;;10523351;28;20234;-78
2022/01/11 20:00:39;;;;;;;5.63;5.23;;;6.00;99.90;;;;;;10482746;28;20247;-80
2022/01/11 20:05:43;;;;;;;6.17;5.70;;;5.90;99.90;;;;;;10533409;28;20250;-78
2022/01/11 20:10:48;;;;;;;7.13;6.43;;;5.90;98.80;;;;;;10520199;28;20260;-79
2022/01/11 20:15:50;;;;;;;6.20;5.70;;;6.00;99.90;;;;;;10505148;28;20219;-78
2022/01/11 20:20:54;;;;;;;6.93;6.23;;;5.90;99.90;;;;;;10506318;28;20582;-78
2022/01/11 20:31:21;;;;;;;7.33;6.60;;;5.90;99.90;;;;;;10503467;28;20187;-78
2022/01/11 20:36:24;;;;;;;7.00;6.40;;;5.80;99.90;;;;;;10502835;28;20220;-79
2022/01/11 20:46:59;;;;;;;6.90;6.30;;;5.70;99.90;;;;;;10490764;28;20208;-78
2022/01/11 20:52:19;;;;;;;7.10;6.40;;;5.50;99.90;;;;;;10502331;28;20238;-78
2022/01/11 20:57:22;;;;;;;6.77;6.17;;;5.40;99.90;;;;;;10497827;28;20295;-80
2022/01/11 21:02:24;;;;;;;6.63;6.03;;;5.30;99.90;;;;;;10479572;28;20204;-80
2022/01/11 21:07:27;;;;;;;7.70;7.00;;;5.10;99.90;;;;;;10518369;28;20208;-77
2022/01/11 21:12:33;;;;;;;8.80;8.00;;;4.90;99.90;;;;;;10487082;28;20279;-78
2022/01/11 21:22:55;;;;;;;8.07;7.37;;;4.70;99.90;;;;;;10492225;28;20258;-79
2022/01/11 21:27:59;;;;;;;8.00;7.30;;;4.60;99.90;;;;;;10548243;28;20654;-78
2022/01/11 21:33:01;;;;;;;9.70;7.53;;;4.50;99.90;;;;;;10526844;28;20203;-78
2022/01/11 21:38:03;;;;;;;8.97;8.10;;;4.50;99.90;;;;;;10518312;28;20254;-79
2022/01/11 21:43:07;;;;;;;8.03;7.33;;;4.40;99.90;;;;;;10504709;28;20298;-79
2022/01/11 21:48:10;;;;;;;8.70;7.87;;;4.30;99.90;;;;;;10514830;28;20216;-78
2022/01/11 21:53:12;;;;;;;7.40;6.70;;;4.20;99.90;;;;;;10551162;28;20256;-78
2022/01/11 21:58:15;;;;;;;10.87;7.70;;;4.10;99.90;;;;;;10548385;28;20299;-80
2022/01/11 22:03:18;;;;;;;7.83;7.03;;;4.10;99.90;;;;;;10513611;28;20629;-80
2022/01/11 22:08:20;;;;;;;8.43;7.63;;;4.10;99.90;;;;;;10509234;28;20223;-80
2022/01/11 22:13:30;;;;;;;9.57;8.40;;;4.00;99.90;;;;;;10516540;28;20267;-79
2022/01/11 22:18:33;;;;;;;8.53;7.63;;;4.00;99.90;;;;;;10512265;28;20192;-78
2022/01/11 22:23:37;;;;;;;8.40;7.60;;;3.90;99.90;;;;;;10552665;28;20295;-80
2022/01/11 22:28:41;;;;;;;10.97;8.30;;;3.90;99.90;;;;;;10517541;28;20203;-80
2022/01/11 22:33:43;;;;;;;8.60;7.80;;;3.80;99.90;;;;;;10550473;28;20222;-80
2022/01/11 22:38:45;;;;;;;8.90;8.10;;;3.80;99.90;;;;;;10553354;28;20226;-79
2022/01/11 22:43:48;;;;;;;10.03;9.00;;;3.80;99.90;;;;;;10518158;28;20219;-78
2022/01/11 22:48:50;;;;;;;10.70;9.70;;;3.70;99.90;;;;;;10536715;28;20203;-80
2022/01/11 22:53:52;;;;;;;11.00;9.90;;;3.70;99.90;;;;;;10529839;28;20580;-80
2022/01/11 22:58:56;;;;;;;8.47;7.60;;;3.70;99.90;;;;;;10487355;28;20337;-78
2022/01/11 23:03:58;;;;;;;9.30;8.40;;;3.60;99.90;;;;;;10527316;28;20215;-79
2022/01/11 23:09:05;;;;;;;9.03;8.13;;;3.60;99.90;;;;;;10493703;28;20664;-79
2022/01/11 23:19:28;;;;;;;8.70;7.90;;;3.60;99.90;;;;;;10489904;28;20604;-80
2022/01/11 23:24:31;;;;;;;8.67;7.87;;;3.50;99.90;;;;;;10527152;28;20215;-80
2022/01/11 23:29:36;;;;;;;8.50;7.50;;;3.50;99.90;;;;;;10471029;28;20213;-79
2022/01/11 23:34:38;;;;;;;10.07;7.70;;;3.40;99.90;;;;;;10545905;28;20216;-79
2022/01/11 23:50:24;;;;;;;9.10;7.40;;;3.30;99.90;;;;;;10529945;28;20211;-79
2022/01/11 23:55:26;;;;;;;8.33;7.37;;;3.30;99.90;;;;;;10530761;28;20218;-79
